Time;durP1;ratioP1;P1;durP2;ratioP2;P2;SDS_P1;SDS_P2;PMS_P1;PMS_P2;Temp;Humidity;BMP_temperature;BMP_pressure;BME280_temperature;BME280_humidity;BME280_pressure;Samples;Min_cycle;Max_cycle;Signal;HPM_P1;HPM_P2
2023/09/04 00:02:21;;;;;;;3.72;2.85;;;23.30;99.90;;;;;;1898678;75;21576;-78
2023/09/04 00:05:12;;;;;;;5.55;2.90;;;23.20;99.90;;;;;;1898786;75;21577;-77
2023/09/04 00:08:04;;;;;;;4.58;3.12;;;23.20;99.90;;;;;;1899483;75;21577;-76
2023/09/04 00:10:55;;;;;;;6.53;3.58;;;23.10;99.90;;;;;;1899554;75;21224;-76
2023/09/04 00:13:46;;;;;;;4.22;3.20;;;23.00;99.90;;;;;;1899312;75;21179;-76
2023/09/04 00:16:38;;;;;;;3.87;2.65;;;23.00;99.90;;;;;;1898948;75;21095;-76
2023/09/04 00:19:29;;;;;;;4.40;2.98;;;23.00;99.90;;;;;;1899530;75;21105;-76
2023/09/04 00:22:21;;;;;;;5.85;2.72;;;22.90;99.90;;;;;;1899456;75;21138;-76
2023/09/04 00:25:12;;;;;;;3.87;2.40;;;22.90;99.90;;;;;;1899473;75;21066;-76
2023/09/04 00:28:04;;;;;;;4.97;2.55;;;22.80;99.90;;;;;;1899434;75;21159;-77
2023/09/04 00:30:57;;;;;;;8.28;3.30;;;22.80;99.90;;;;;;1899517;75;21202;-77
2023/09/04 00:33:48;;;;;;;3.15;2.55;;;22.70;99.90;;;;;;1899527;75;21580;-77
2023/09/04 00:36:40;;;;;;;3.17;2.70;;;22.70;99.90;;;;;;1899166;75;21183;-76
2023/09/04 00:39:31;;;;;;;3.67;2.67;;;22.70;99.90;;;;;;1899101;75;21191;-76
2023/09/04 00:42:22;;;;;;;2.95;2.45;;;22.70;99.90;;;;;;1899094;75;21059;-77
2023/09/04 00:45:14;;;;;;;4.03;2.50;;;22.60;99.90;;;;;;1899234;75;21098;-77
2023/09/04 00:48:06;;;;;;;3.45;2.58;;;22.60;99.90;;;;;;1899271;75;21109;-77
2023/09/04 00:50:59;;;;;;;3.52;2.55;;;22.50;99.90;;;;;;1899346;75;21103;-77
2023/09/04 00:53:50;;;;;;;3.87;3.27;;;22.50;99.90;;;;;;1899069;75;21182;-77
2023/09/04 00:56:42;;;;;;;5.87;2.70;;;22.40;99.90;;;;;;1899538;75;21054;-77
2023/09/04 00:59:34;;;;;;;4.17;3.00;;;22.50;99.90;;;;;;1899514;75;21146;-77
2023/09/04 01:02:26;;;;;;;3.85;2.92;;;22.50;99.90;;;;;;1899647;75;21197;-77
2023/09/04 01:05:18;;;;;;;3.17;2.65;;;22.50;99.90;;;;;;1899612;75;21102;-77
2023/09/04 01:08:09;;;;;;;3.40;2.65;;;22.50;99.90;;;;;;1899611;75;21101;-77
2023/09/04 01:11:05;;;;;;;3.33;2.33;;;22.40;99.90;;;;;;1899587;75;21113;-77
2023/09/04 01:13:58;;;;;;;4.42;2.62;;;22.40;99.90;;;;;;1899619;75;21144;-77
2023/09/04 01:16:49;;;;;;;6.60;3.33;;;22.40;99.90;;;;;;1899443;75;21592;-78
2023/09/04 01:19:41;;;;;;;4.37;2.80;;;22.40;99.90;;;;;;1899034;75;21680;-77
2023/09/04 01:22:32;;;;;;;4.50;2.70;;;22.30;99.90;;;;;;1899538;75;21074;-76
2023/09/04 01:25:25;;;;;;;3.58;2.85;;;22.30;99.90;;;;;;1899369;75;21132;-76
2023/09/04 01:28:21;;;;;;;3.27;2.98;;;22.30;99.90;;;;;;1899637;75;21039;-77
2023/09/04 01:31:17;;;;;;;5.33;2.77;;;22.40;99.90;;;;;;1857247;77;21121;-77
2023/09/04 01:34:11;;;;;;;4.10;2.98;;;22.40;99.90;;;;;;1899483;75;21136;-77
2023/09/04 01:37:04;;;;;;;3.27;2.50;;;22.30;99.90;;;;;;1899285;75;21086;-77
2023/09/04 01:39:55;;;;;;;4.00;2.70;;;22.30;99.90;;;;;;1899325;75;21108;-76
2023/09/04 01:42:47;;;;;;;3.67;2.52;;;22.20;99.90;;;;;;1899415;75;21121;-76
2023/09/04 01:45:38;;;;;;;5.90;2.62;;;22.30;99.90;;;;;;1899293;75;21055;-77
2023/09/04 01:48:30;;;;;;;5.42;2.40;;;22.20;99.90;;;;;;1899746;75;21179;-77
2023/09/04 01:51:22;;;;;;;3.58;2.60;;;22.20;99.90;;;;;;1899402;75;21179;-77
2023/09/04 01:54:13;;;;;;;4.50;2.60;;;22.10;99.90;;;;;;1899303;75;21099;-77
2023/09/04 01:57:05;;;;;;;2.52;2.15;;;22.00;99.90;;;;;;1898928;75;21299;-77
2023/09/04 01:59:56;;;;;;;3.10;2.50;;;22.00;99.90;;;;;;1899295;75;21109;-77
2023/09/04 02:02:49;;;;;;;2.62;2.30;;;21.90;99.90;;;;;;1899388;75;21687;-77
2023/09/04 02:05:42;;;;;;;2.80;2.30;;;22.00;99.90;;;;;;1899500;75;21090;-77
2023/09/04 02:08:34;;;;;;;3.55;2.50;;;21.90;99.90;;;;;;1899386;75;21163;-76
2023/09/04 02:11:26;;;;;;;3.05;2.25;;;21.90;99.90;;;;;;1899529;75;21609;-76
2023/09/04 02:14:17;;;;;;;5.53;2.65;;;21.80;99.90;;;;;;1899558;75;21207;-77
2023/09/04 02:17:09;;;;;;;3.10;2.40;;;21.80;99.90;;;;;;1899673;75;21415;-76
2023/09/04 02:20:01;;;;;;;2.50;2.30;;;21.80;99.90;;;;;;1899236;75;21102;-77
2023/09/04 02:22:53;;;;;;;2.67;2.40;;;21.80;99.90;;;;;;1899083;75;21127;-77
2023/09/04 02:25:46;;;;;;;2.80;2.40;;;21.70;99.90;;;;;;1899204;75;21105;-77
2023/09/04 02:28:37;;;;;;;2.62;2.42;;;21.70;99.90;;;;;;1899390;75;21058;-77
2023/09/04 02:31:28;;;;;;;4.40;2.37;;;21.70;99.90;;;;;;1899364;75;21308;-76
2023/09/04 02:34:20;;;;;;;3.40;2.25;;;21.60;99.90;;;;;;1899410;75;21192;-77
2023/09/04 02:37:11;;;;;;;2.37;2.17;;;21.60;99.90;;;;;;1899443;75;21155;-77
2023/09/04 02:40:05;;;;;;;3.10;2.20;;;21.70;99.90;;;;;;1899355;75;21148;-77
2023/09/04 02:42:56;;;;;;;2.67;2.45;;;21.60;99.90;;;;;;1899462;75;21104;-77
2023/09/04 02:45:48;;;;;;;3.70;2.30;;;21.60;99.90;;;;;;1899505;75;21054;-77
2023/09/04 02:48:39;;;;;;;5.42;2.60;;;21.60;99.90;;;;;;1899405;75;21097;-77
2023/09/04 02:51:30;;;;;;;5.17;2.67;;;21.50;99.90;;;;;;1899423;75;21121;-76
2023/09/04 02:54:21;;;;;;;4.20;2.58;;;21.40;99.90;;;;;;1899204;75;21100;-77
2023/09/04 02:57:13;;;;;;;5.03;2.80;;;21.30;99.90;;;;;;1899214;75;21142;-76
2023/09/04 03:00:06;;;;;;;3.80;2.52;;;21.30;99.90;;;;;;1898981;75;21098;-76
2023/09/04 03:02:58;;;;;;;2.87;2.58;;;21.30;99.90;;;;;;1899341;75;21173;-77
2023/09/04 03:05:50;;;;;;;4.37;2.50;;;21.20;99.90;;;;;;1899508;75;21094;-77
2023/09/04 03:08:41;;;;;;;4.58;2.47;;;21.20;99.90;;;;;;1899083;75;21175;-77
2023/09/04 03:11:33;;;;;;;4.22;2.60;;;21.30;99.90;;;;;;1899022;75;21109;-77
2023/09/04 03:14:25;;;;;;;4.92;2.58;;;21.20;99.90;;;;;;1899609;75;21150;-76
2023/09/04 03:17:16;;;;;;;5.92;2.50;;;21.30;99.90;;;;;;1899458;75;21179;-76
2023/09/04 03:20:12;;;;;;;3.15;2.52;;;21.20;99.90;;;;;;1899517;75;21183;-77
2023/09/04 03:23:04;;;;;;;4.20;2.50;;;21.20;99.90;;;;;;1899294;75;21211;-77
2023/09/04 03:25:56;;;;;;;3.25;2.52;;;21.20;99.90;;;;;;1899005;75;21110;-77
2023/09/04 03:28:47;;;;;;;4.92;2.40;;;21.10;99.90;;;;;;1898886;75;21079;-76
2023/09/04 03:31:41;;;;;;;3.62;2.40;;;21.10;99.90;;;;;;1899522;75;21078;-77
2023/09/04 03:34:33;;;;;;;4.50;2.72;;;21.10;99.90;;;;;;1899566;75;21053;-77
2023/09/04 03:37:24;;;;;;;4.12;2.90;;;21.00;99.90;;;;;;1899533;75;21156;-77
2023/09/04 03:40:24;;;;;;;3.27;2.58;;;21.10;99.90;;;;;;1885730;75;21134;-77
2023/09/04 03:43:16;;;;;;;4.58;2.45;;;21.10;99.90;;;;;;1883417;76;21138;-77
2023/09/04 03:46:13;;;;;;;5.37;2.60;;;21.00;99.90;;;;;;1871684;77;21096;-76
2023/09/04 03:49:05;;;;;;;3.00;2.05;;;21.00;99.90;;;;;;1871703;77;21155;-76
2023/09/04 03:51:57;;;;;;;5.10;3.10;;;21.00;99.90;;;;;;1871369;77;21111;-77
2023/09/04 03:54:48;;;;;;;5.58;3.12;;;21.00;99.90;;;;;;1871549;77;21356;-77
2023/09/04 03:57:43;;;;;;;4.65;2.77;;;21.10;99.90;;;;;;1871545;77;21609;-76
2023/09/04 04:00:35;;;;;;;4.10;3.00;;;21.10;99.90;;;;;;1871879;77;21578;-77
2023/09/04 04:03:26;;;;;;;6.62;3.17;;;21.10;99.90;;;;;;1871700;77;21110;-77
2023/09/04 04:06:18;;;;;;;3.20;2.70;;;21.10;99.90;;;;;;1871746;77;21064;-76
2023/09/04 04:09:11;;;;;;;3.47;2.72;;;21.10;99.90;;;;;;1871434;77;21163;-77
2023/09/04 04:12:03;;;;;;;4.40;2.62;;;21.10;99.90;;;;;;1871387;77;21063;-77
2023/09/04 04:14:57;;;;;;;4.40;2.75;;;21.00;99.90;;;;;;1871082;77;21134;-77
2023/09/04 04:17:49;;;;;;;5.72;3.02;;;21.00;99.90;;;;;;1871359;77;21119;-76
2023/09/04 04:20:41;;;;;;;3.90;2.50;;;20.90;99.90;;;;;;1883632;76;21180;-77
2023/09/04 04:23:33;;;;;;;4.17;2.62;;;20.90;99.90;;;;;;1883401;76;21130;-76
2023/09/04 04:26:24;;;;;;;4.67;2.92;;;20.80;99.90;;;;;;1883305;76;21111;-76
2023/09/04 04:29:17;;;;;;;5.42;3.60;;;20.80;99.90;;;;;;1883622;76;21121;-76
2023/09/04 04:32:08;;;;;;;5.03;3.45;;;20.80;99.90;;;;;;1871629;77;21098;-77
2023/09/04 04:35:00;;;;;;;5.10;3.10;;;20.80;99.90;;;;;;1883724;76;21102;-76
2023/09/04 04:37:51;;;;;;;5.65;3.45;;;20.70;99.90;;;;;;1871557;77;21618;-76
2023/09/04 04:40:43;;;;;;;3.35;2.90;;;20.70;99.90;;;;;;1871555;76;21165;-76
2023/09/04 04:43:36;;;;;;;3.30;3.00;;;20.70;99.90;;;;;;1871859;77;21188;-77
2023/09/04 04:46:29;;;;;;;3.92;2.72;;;20.60;99.90;;;;;;1871552;77;21088;-76
2023/09/04 04:49:23;;;;;;;4.53;2.77;;;20.70;99.90;;;;;;1883280;76;21138;-77
2023/09/04 04:52:14;;;;;;;5.03;3.02;;;20.70;99.90;;;;;;1882816;76;21081;-77
2023/09/04 04:55:07;;;;;;;5.10;3.00;;;20.60;99.90;;;;;;1883203;76;21171;-77
2023/09/04 04:57:58;;;;;;;3.52;2.50;;;20.60;99.90;;;;;;1883315;76;21121;-77
2023/09/04 05:00:49;;;;;;;5.10;2.67;;;20.60;99.90;;;;;;1882756;76;21258;-76
2023/09/04 05:03:41;;;;;;;3.98;2.80;;;20.60;99.90;;;;;;1882925;76;21644;-76
2023/09/04 05:06:33;;;;;;;2.85;2.35;;;20.70;99.90;;;;;;1883408;76;21051;-77
2023/09/04 05:09:26;;;;;;;4.72;3.10;;;20.70;99.90;;;;;;1871544;77;21180;-77
2023/09/04 05:12:18;;;;;;;4.72;2.85;;;20.60;99.90;;;;;;1871645;77;21511;-76
2023/09/04 05:15:11;;;;;;;4.15;2.98;;;20.60;99.90;;;;;;1871644;77;21195;-77
2023/09/04 05:18:03;;;;;;;4.20;2.83;;;20.50;99.90;;;;;;1871569;77;21063;-77
2023/09/04 05:20:55;;;;;;;4.20;2.65;;;20.60;99.90;;;;;;1883403;76;21204;-77
2023/09/04 05:23:47;;;;;;;5.67;2.87;;;20.50;99.90;;;;;;1883352;76;21131;-76
2023/09/04 05:26:38;;;;;;;5.87;2.70;;;20.60;99.90;;;;;;1871664;77;21067;-77
2023/09/04 05:29:30;;;;;;;4.92;2.80;;;20.60;99.90;;;;;;1871799;77;21186;-77
2023/09/04 05:32:22;;;;;;;4.72;2.80;;;20.70;99.90;;;;;;1871537;77;21108;-77
2023/09/04 05:35:13;;;;;;;7.80;3.02;;;20.60;99.90;;;;;;1886673;75;21048;-77
2023/09/04 05:38:06;;;;;;;5.60;2.87;;;20.60;99.90;;;;;;1903900;75;21099;-77
2023/09/04 05:40:59;;;;;;;4.42;2.90;;;20.60;99.90;;;;;;1911993;74;21162;-77
2023/09/04 05:43:50;;;;;;;3.72;3.02;;;20.60;99.90;;;;;;1925656;74;21163;-77
2023/09/04 05:46:42;;;;;;;5.35;3.20;;;20.50;99.90;;;;;;1925964;74;21090;-77
2023/09/04 05:49:33;;;;;;;7.03;3.10;;;20.60;99.90;;;;;;1925711;74;21179;-77
2023/09/04 05:52:25;;;;;;;4.28;3.02;;;20.60;99.90;;;;;;1925881;74;21538;-77
2023/09/04 05:55:16;;;;;;;4.08;3.00;;;20.60;99.90;;;;;;1925836;74;21122;-77
2023/09/04 05:58:08;;;;;;;3.33;3.02;;;20.60;99.90;;;;;;1925777;74;21631;-77
2023/09/04 06:00:59;;;;;;;5.75;3.10;;;20.60;99.90;;;;;;1925855;74;21075;-76
2023/09/04 06:03:51;;;;;;;3.75;3.00;;;20.70;99.90;;;;;;1925551;74;21224;-77
2023/09/04 06:06:42;;;;;;;5.22;2.75;;;20.70;99.90;;;;;;1915336;74;21138;-76
2023/09/04 06:09:33;;;;;;;3.65;2.92;;;20.80;99.90;;;;;;1907679;75;21521;-76
2023/09/04 06:12:25;;;;;;;3.90;2.52;;;20.70;99.90;;;;;;1907945;75;21082;-76
2023/09/04 06:15:16;;;;;;;6.40;3.12;;;20.80;99.90;;;;;;1908151;75;21097;-76
2023/09/04 06:18:07;;;;;;;4.00;2.98;;;20.80;99.90;;;;;;1908014;75;21155;-76
2023/09/04 06:20:59;;;;;;;5.45;2.70;;;20.80;99.90;;;;;;1908126;75;21093;-76
2023/09/04 06:23:51;;;;;;;3.30;3.00;;;20.90;99.90;;;;;;1907917;75;21116;-76
2023/09/04 06:26:42;;;;;;;6.20;3.05;;;21.00;99.90;;;;;;1908070;75;21126;-76
2023/09/04 06:29:34;;;;;;;5.87;3.00;;;21.00;99.90;;;;;;1907707;75;21057;-76
2023/09/04 06:32:28;;;;;;;4.03;2.75;;;21.10;99.90;;;;;;1907482;75;21197;-76
2023/09/04 06:35:20;;;;;;;4.97;3.00;;;21.20;99.90;;;;;;1936799;73;21194;-76
2023/09/04 06:38:14;;;;;;;5.65;3.05;;;21.20;99.90;;;;;;1963574;73;21093;-76
2023/09/04 06:41:05;;;;;;;3.10;2.75;;;21.20;99.90;;;;;;1963846;73;21133;-76
2023/09/04 06:43:57;;;;;;;6.70;3.00;;;21.30;99.90;;;;;;1964171;73;21140;-76
2023/09/04 06:46:48;;;;;;;4.17;3.00;;;21.30;99.90;;;;;;1963873;73;21067;-77
2023/09/04 06:49:39;;;;;;;4.85;3.22;;;21.30;99.90;;;;;;1963949;73;21078;-77
2023/09/04 06:52:31;;;;;;;6.00;3.30;;;21.40;99.90;;;;;;1963229;73;21101;-77
2023/09/04 06:55:22;;;;;;;5.55;3.65;;;21.40;99.90;;;;;;1963399;73;21171;-77
2023/09/04 06:58:13;;;;;;;7.78;3.58;;;21.50;99.90;;;;;;1963805;73;21067;-77
2023/09/04 07:01:05;;;;;;;4.87;3.08;;;21.50;99.90;;;;;;1964092;73;21156;-77
2023/09/04 07:03:56;;;;;;;4.80;3.08;;;21.60;99.90;;;;;;1964101;73;21164;-77
2023/09/04 07:06:47;;;;;;;3.67;2.75;;;21.70;99.90;;;;;;1963850;73;21098;-77
2023/09/04 07:09:39;;;;;;;5.47;2.62;;;21.70;99.90;;;;;;1963739;73;21159;-77
2023/09/04 07:12:34;;;;;;;3.85;2.60;;;21.80;99.90;;;;;;1963712;73;21612;-77
2023/09/04 07:15:25;;;;;;;3.90;2.52;;;21.90;99.90;;;;;;1963891;73;21168;-77
2023/09/04 07:18:16;;;;;;;4.17;3.00;;;22.00;99.90;;;;;;1963961;73;21612;-77
2023/09/04 07:21:07;;;;;;;6.70;2.87;;;22.00;99.90;;;;;;1964182;73;21102;-77
2023/09/04 07:23:59;;;;;;;6.25;3.15;;;22.00;99.90;;;;;;1967131;73;21046;-77
2023/09/04 07:26:50;;;;;;;5.87;2.62;;;22.10;99.90;;;;;;1963939;73;21113;-77
2023/09/04 07:29:42;;;;;;;4.85;2.70;;;22.20;99.90;;;;;;1967149;73;21097;-77
2023/09/04 07:32:33;;;;;;;6.15;2.98;;;22.30;99.90;;;;;;1967129;73;21073;-77
2023/09/04 07:35:34;;;;;;;4.03;2.80;;;22.30;99.90;;;;;;1936946;73;21196;-78
2023/09/04 07:38:26;;;;;;;3.42;2.75;;;22.30;99.90;;;;;;1913732;75;21113;-76
2023/09/04 07:41:18;;;;;;;4.50;2.75;;;22.50;99.90;;;;;;1856672;77;21197;-76
2023/09/04 07:44:09;;;;;;;4.58;2.87;;;22.60;99.90;;;;;;1849427;77;21206;-76
2023/09/04 07:47:00;;;;;;;5.45;3.08;;;22.60;99.90;;;;;;1898463;75;21212;-76
2023/09/04 07:49:53;;;;;;;5.42;2.87;;;22.70;99.90;;;;;;1898172;75;21163;-77
2023/09/04 07:52:45;;;;;;;3.90;3.02;;;22.70;99.90;;;;;;1898621;75;21139;-77
2023/09/04 07:55:36;;;;;;;4.25;2.70;;;22.70;99.90;;;;;;1898446;75;21170;-78
2023/09/04 07:58:28;;;;;;;3.75;2.67;;;22.80;99.90;;;;;;1898581;75;21078;-78
2023/09/04 08:01:19;;;;;;;4.05;2.75;;;22.90;99.90;;;;;;1898769;75;21163;-77
2023/09/04 08:04:13;;;;;;;4.05;3.02;;;22.90;99.90;;;;;;1898718;75;21090;-77
2023/09/04 08:07:05;;;;;;;5.75;4.75;;;23.00;99.90;;;;;;1898596;75;21038;-78
2023/09/04 08:09:57;;;;;;;4.05;3.42;;;23.00;99.90;;;;;;1898636;75;21109;-77
2023/09/04 08:12:48;;;;;;;3.47;2.92;;;23.10;99.90;;;;;;1898703;75;21055;-77
2023/09/04 08:15:41;;;;;;;3.70;2.50;;;23.20;99.90;;;;;;1898454;75;21093;-77
2023/09/04 08:18:32;;;;;;;5.42;2.40;;;23.30;99.90;;;;;;1898575;75;21463;-78
2023/09/04 08:21:24;;;;;;;2.60;2.40;;;23.30;99.90;;;;;;1898729;75;21066;-77
2023/09/04 08:24:16;;;;;;;3.02;2.70;;;23.40;99.90;;;;;;1898478;75;21178;-77
2023/09/04 08:27:07;;;;;;;3.33;2.50;;;23.50;99.90;;;;;;1898513;75;21641;-77
2023/09/04 08:29:59;;;;;;;5.20;2.77;;;23.50;99.90;;;;;;1898448;75;21058;-77
2023/09/04 08:32:50;;;;;;;4.22;2.70;;;23.60;99.90;;;;;;1898598;75;21098;-77
2023/09/04 08:35:42;;;;;;;3.83;2.37;;;23.70;99.90;;;;;;1898507;75;21199;-78
2023/09/04 08:38:33;;;;;;;4.83;3.08;;;23.70;99.90;;;;;;1898349;75;21105;-77
2023/09/04 08:41:27;;;;;;;3.75;2.98;;;23.80;99.90;;;;;;1898702;75;21070;-77
2023/09/04 08:44:19;;;;;;;3.83;2.75;;;24.00;99.90;;;;;;1903224;75;21577;-77
2023/09/04 08:47:13;;;;;;;3.45;3.00;;;24.00;99.90;;;;;;1908023;75;21615;-77
2023/09/04 08:50:05;;;;;;;4.78;3.22;;;24.10;99.90;;;;;;1908088;75;21061;-77
2023/09/04 08:52:56;;;;;;;3.22;2.62;;;24.10;99.90;;;;;;1907957;75;21093;-77
2023/09/04 08:55:48;;;;;;;6.15;2.90;;;24.20;99.90;;;;;;1907913;75;21552;-77
2023/09/04 08:58:40;;;;;;;5.50;2.67;;;24.30;99.90;;;;;;1908100;75;21094;-77
2023/09/04 09:01:36;;;;;;;5.17;2.80;;;24.30;99.90;;;;;;1908011;75;21553;-77
2023/09/04 09:04:27;;;;;;;3.70;2.55;;;24.40;99.90;;;;;;1908051;75;21087;-77
2023/09/04 09:07:19;;;;;;;4.20;2.65;;;24.40;99.90;;;;;;1921409;74;21163;-77
2023/09/04 09:10:14;;;;;;;4.42;2.90;;;24.50;99.90;;;;;;1924173;74;21181;-77
2023/09/04 09:13:06;;;;;;;4.40;2.90;;;24.50;99.90;;;;;;1924468;74;21086;-77
2023/09/04 09:15:57;;;;;;;3.67;2.83;;;24.60;99.90;;;;;;1924631;74;21187;-77
2023/09/04 09:18:49;;;;;;;5.65;2.52;;;24.70;99.90;;;;;;1924630;74;21146;-77
2023/09/04 09:21:43;;;;;;;3.70;2.85;;;24.70;99.90;;;;;;1924553;74;21113;-77
2023/09/04 09:24:34;;;;;;;6.20;2.70;;;24.80;99.90;;;;;;1924342;74;21094;-77
2023/09/04 09:27:27;;;;;;;3.83;3.20;;;24.90;99.90;;;;;;1924752;74;21594;-77
2023/09/04 09:30:18;;;;;;;4.35;3.12;;;25.00;99.90;;;;;;1924299;74;21602;-77
2023/09/04 09:33:12;;;;;;;6.75;2.70;;;25.10;99.90;;;;;;1924247;74;21122;-77
2023/09/04 09:36:04;;;;;;;4.55;3.25;;;25.10;99.90;;;;;;1924288;74;21050;-77
2023/09/04 09:38:56;;;;;;;3.77;2.77;;;25.20;99.90;;;;;;1924502;74;21175;-77
2023/09/04 09:41:48;;;;;;;3.87;2.90;;;25.30;99.90;;;;;;1924391;74;21110;-77
2023/09/04 09:44:42;;;;;;;5.60;2.60;;;25.40;99.90;;;;;;1922317;74;21079;-77
2023/09/04 09:47:34;;;;;;;4.67;2.55;;;25.40;99.90;;;;;;1914796;75;21639;-77
2023/09/04 09:50:26;;;;;;;4.05;2.30;;;25.50;99.90;;;;;;1914843;75;21110;-78
2023/09/04 09:53:18;;;;;;;5.85;2.72;;;25.50;99.90;;;;;;1914645;75;21091;-77
2023/09/04 09:56:12;;;;;;;3.47;2.67;;;25.70;99.90;;;;;;1914475;75;21098;-77
2023/09/04 09:59:04;;;;;;;3.65;2.40;;;25.80;99.90;;;;;;1914456;75;21105;-77
2023/09/04 10:01:57;;;;;;;4.80;2.65;;;25.80;99.90;;;;;;1914246;75;21152;-77
2023/09/04 10:04:49;;;;;;;4.28;2.35;;;25.90;99.90;;;;;;1914283;75;21117;-78
2023/09/04 10:07:41;;;;;;;3.33;2.60;;;26.00;99.90;;;;;;1884716;75;21622;-78
2023/09/04 10:10:37;;;;;;;4.70;3.02;;;26.10;99.90;;;;;;1883011;76;21615;-78
2023/09/04 10:13:31;;;;;;;6.05;2.80;;;26.10;99.90;;;;;;1883298;76;21170;-78
2023/09/04 10:16:28;;;;;;;4.53;2.70;;;26.20;99.90;;;;;;1883342;76;21209;-77
2023/09/04 10:19:22;;;;;;;4.70;3.30;;;26.20;99.90;;;;;;1883592;76;21101;-78
2023/09/04 10:22:17;;;;;;;3.98;2.98;;;26.30;99.90;;;;;;1883970;76;21108;-78
2023/09/04 10:25:12;;;;;;;4.45;2.65;;;26.40;99.90;;;;;;1883807;76;21049;-78
2023/09/04 10:28:09;;;;;;;6.75;2.75;;;26.50;99.90;;;;;;1883775;76;21178;-78
2023/09/04 10:31:02;;;;;;;4.45;2.60;;;26.60;99.90;;;;;;1883886;76;21696;-78
2023/09/04 10:34:02;;;;;;;3.37;2.52;;;26.60;99.90;;;;;;1883871;76;21064;-77
2023/09/04 10:36:54;;;;;;;3.50;2.87;;;26.70;99.90;;;;;;1883778;76;21654;-78
2023/09/04 10:39:46;;;;;;;5.12;3.10;;;26.70;99.90;;;;;;1883670;76;21107;-78
2023/09/04 10:42:41;;;;;;;3.95;3.02;;;26.80;99.90;;;;;;1883800;76;21117;-78
2023/09/04 10:45:33;;;;;;;5.20;3.08;;;26.90;99.90;;;;;;1883896;75;21399;-78
2023/09/04 10:48:42;;;;;;;3.50;2.80;;;27.00;99.90;;;;;;1883882;76;21064;-77
2023/09/04 10:51:36;;;;;;;3.35;3.02;;;27.10;99.90;;;;;;1884016;76;21092;-78
2023/09/04 10:54:28;;;;;;;3.25;2.92;;;27.10;99.90;;;;;;1883698;76;21162;-78
2023/09/04 10:57:21;;;;;;;9.03;7.58;;;27.20;99.90;;;;;;1884010;76;21060;-78
2023/09/04 11:00:15;;;;;;;4.25;3.10;;;27.30;99.90;;;;;;1883772;76;21551;-78
2023/09/04 11:03:18;;;;;;;4.78;3.25;;;27.30;99.90;;;;;;1883921;76;21706;-78
2023/09/04 11:06:20;;;;;;;3.58;2.60;;;27.40;99.90;;;;;;1883935;76;21089;-78
2023/09/04 11:09:08;;;;;;;4.45;2.50;;;27.50;99.90;;;;;;1883811;76;21119;-78
2023/09/04 11:12:01;;;;;;;6.53;2.80;;;27.50;99.90;;;;;;1883705;76;21142;-77
2023/09/04 11:14:55;;;;;;;7.50;3.33;;;27.60;99.90;;;;;;1883672;76;21186;-78
2023/09/04 11:17:49;;;;;;;3.27;2.87;;;27.70;99.90;;;;;;1883562;76;21087;-78
2023/09/04 11:20:46;;;;;;;3.20;2.60;;;27.80;99.90;;;;;;1883531;76;21226;-77
2023/09/04 11:23:38;;;;;;;5.22;2.90;;;27.90;99.90;;;;;;1883503;76;21189;-78
2023/09/04 11:26:30;;;;;;;3.40;2.62;;;27.90;99.90;;;;;;1883827;76;21155;-77
2023/09/04 11:29:22;;;;;;;5.53;2.90;;;28.00;99.90;;;;;;1883594;76;21108;-78
2023/09/04 11:32:14;;;;;;;6.62;2.80;;;28.00;99.90;;;;;;1883701;76;21178;-78
2023/09/04 11:35:08;;;;;;;3.50;2.80;;;28.10;99.90;;;;;;1883865;76;21072;-78
2023/09/04 11:38:01;;;;;;;3.37;2.75;;;28.20;99.90;;;;;;1883617;76;21088;-78
2023/09/04 11:40:53;;;;;;;2.72;2.20;;;28.30;99.90;;;;;;1883831;76;21163;-78
2023/09/04 11:43:45;;;;;;;3.87;2.87;;;28.30;99.90;;;;;;1883780;76;21119;-77
2023/09/04 11:46:37;;;;;;;5.12;2.60;;;28.40;99.90;;;;;;1880819;75;21876;-78
2023/09/04 11:49:28;;;;;;;4.15;2.72;;;28.50;99.90;;;;;;1871457;77;21171;-78
2023/09/04 11:52:22;;;;;;;3.05;2.58;;;28.50;99.90;;;;;;1871489;77;21085;-77
2023/09/04 11:55:15;;;;;;;3.70;2.52;;;28.70;99.90;;;;;;1871173;77;21085;-78
2023/09/04 11:58:06;;;;;;;5.20;2.80;;;28.80;99.90;;;;;;1871314;77;21102;-78
2023/09/04 12:01:00;;;;;;;2.92;2.52;;;28.70;99.90;;;;;;1871566;77;21588;-78
2023/09/04 12:03:53;;;;;;;2.75;2.50;;;28.80;99.90;;;;;;1871043;77;21135;-78
2023/09/04 12:06:44;;;;;;;3.70;2.65;;;28.90;99.90;;;;;;1871274;77;21061;-78
2023/09/04 12:09:37;;;;;;;4.62;2.65;;;29.00;99.90;;;;;;1871343;77;21061;-78
2023/09/04 12:12:28;;;;;;;4.92;2.45;;;29.20;99.90;;;;;;1871562;77;21148;-78
2023/09/04 12:15:28;;;;;;;3.15;2.50;;;29.30;99.90;;;;;;1871502;77;21069;-79
2023/09/04 12:18:22;;;;;;;2.60;2.30;;;29.30;99.90;;;;;;1871430;77;21127;-79
2023/09/04 12:21:14;;;;;;;3.67;2.42;;;29.30;99.90;;;;;;1871239;77;21174;-78
2023/09/04 12:26:52;;;;;;;2.75;2.55;;;29.50;99.90;;;;;;1958089;72;22256;-78
2023/09/04 12:29:43;;;;;;;3.90;2.45;;;29.60;99.90;;;;;;1905163;75;21177;-77
2023/09/04 12:32:35;;;;;;;4.60;2.42;;;29.70;99.90;;;;;;1904545;75;21087;-77
2023/09/04 12:35:26;;;;;;;2.95;2.65;;;29.70;99.90;;;;;;1904776;75;21144;-78
2023/09/04 12:38:17;;;;;;;2.60;2.40;;;29.80;99.90;;;;;;1904634;75;21231;-77
2023/09/04 12:41:08;;;;;;;2.42;2.22;;;29.90;99.90;;;;;;1904779;75;21099;-77
2023/09/04 12:44:00;;;;;;;3.70;2.15;;;29.90;99.90;;;;;;1904693;75;21056;-78
2023/09/04 12:46:52;;;;;;;2.30;2.08;;;29.90;99.90;;;;;;1904671;75;21099;-77
2023/09/04 12:49:44;;;;;;;2.80;2.47;;;30.00;99.90;;;;;;1904501;75;21751;-77
2023/09/04 12:52:35;;;;;;;2.83;2.50;;;30.10;99.90;;;;;;1904604;75;21103;-77
2023/09/04 12:55:26;;;;;;;4.45;2.72;;;30.10;99.90;;;;;;1904776;75;21176;-77
2023/09/04 12:58:18;;;;;;;4.42;2.50;;;30.20;99.90;;;;;;1904776;75;21605;-77
2023/09/04 13:01:09;;;;;;;2.90;2.50;;;30.30;99.90;;;;;;1904934;75;21166;-77
2023/09/04 13:04:03;;;;;;;4.15;2.37;;;30.30;99.90;;;;;;1904374;75;21156;-78
2023/09/04 13:06:54;;;;;;;3.65;2.27;;;30.40;99.90;;;;;;1904723;75;21312;-77
2023/09/04 13:09:48;;;;;;;3.42;2.45;;;30.40;99.90;;;;;;1904436;75;21145;-78
2023/09/04 13:12:39;;;;;;;4.22;2.50;;;30.60;99.90;;;;;;1904369;75;21060;-77
2023/09/04 13:15:31;;;;;;;4.22;2.47;;;30.70;99.90;;;;;;1904957;75;21055;-78
2023/09/04 13:18:22;;;;;;;4.15;2.50;;;30.80;99.90;;;;;;1904649;75;21087;-77
2023/09/04 13:21:13;;;;;;;3.60;2.33;;;30.90;99.90;;;;;;1904610;75;21091;-79
2023/09/04 13:24:05;;;;;;;4.08;2.30;;;31.00;99.90;;;;;;1904483;75;21052;-79
2023/09/04 13:26:56;;;;;;;3.92;2.30;;;31.20;99.90;;;;;;1904644;74;21562;-77
2023/09/04 13:29:48;;;;;;;3.95;2.50;;;31.20;99.90;;;;;;1904326;75;21102;-77
2023/09/04 13:32:40;;;;;;;3.77;2.60;;;31.30;99.90;;;;;;1904476;75;21055;-77
2023/09/04 13:35:32;;;;;;;6.95;2.40;;;31.30;99.90;;;;;;1930986;73;21130;-77
2023/09/04 13:38:23;;;;;;;5.92;2.50;;;31.40;99.90;;;;;;1947034;74;21090;-77
2023/09/04 13:41:15;;;;;;;2.70;2.20;;;31.50;99.90;;;;;;1946850;74;21105;-78
2023/09/04 13:44:07;;;;;;;2.85;2.33;;;31.40;99.90;;;;;;1947255;74;21200;-77
2023/09/04 13:46:58;;;;;;;4.60;2.35;;;31.60;99.90;;;;;;1947200;74;21151;-77
2023/09/04 13:49:50;;;;;;;3.30;2.30;;;31.80;99.90;;;;;;1947392;74;21131;-78
2023/09/04 13:52:42;;;;;;;4.90;2.35;;;31.90;99.90;;;;;;1947382;74;21105;-78
2023/09/04 13:55:34;;;;;;;4.55;2.20;;;32.10;99.90;;;;;;1947456;74;21184;-78
2023/09/04 13:58:26;;;;;;;3.05;2.40;;;32.30;99.90;;;;;;1947456;74;21110;-77
2023/09/04 14:01:17;;;;;;;6.17;2.37;;;32.50;99.90;;;;;;1947551;74;21160;-78
2023/09/04 14:04:09;;;;;;;2.95;2.12;;;32.80;99.90;;;;;;1947414;74;21118;-78
2023/09/04 14:07:01;;;;;;;4.50;2.40;;;32.90;99.90;;;;;;1947433;74;21051;-78
2023/09/04 14:09:54;;;;;;;3.20;2.20;;;33.20;99.90;;;;;;1947442;74;21122;-78
2023/09/04 14:12:45;;;;;;;2.55;2.30;;;33.90;99.90;;;;;;1947346;74;21099;-78
2023/09/04 14:15:37;;;;;;;3.95;2.55;;;35.40;99.90;;;;;;1947511;74;21160;-78
2023/09/04 14:18:29;;;;;;;2.58;2.02;;;35.70;99.90;;;;;;1947568;74;21086;-78
2023/09/04 14:21:21;;;;;;;3.75;2.72;;;35.90;99.90;;;;;;1947278;74;21055;-78
2023/09/04 14:24:16;;;;;;;3.70;2.40;;;36.30;98.60;;;;;;1947432;74;21160;-78
2023/09/04 14:27:07;;;;;;;3.70;2.20;;;36.10;97.30;;;;;;1941487;73;21111;-78
2023/09/04 14:30:03;;;;;;;3.27;2.50;;;36.00;96.60;;;;;;1924323;74;21095;-78
2023/09/04 14:32:57;;;;;;;5.35;2.67;;;37.00;96.70;;;;;;1922344;74;21114;-78
2023/09/04 14:35:58;;;;;;;3.08;2.35;;;37.60;93.30;;;;;;1921941;74;21064;-78
2023/09/04 14:38:52;;;;;;;2.92;2.08;;;38.00;92.00;;;;;;1921889;74;21139;-78
2023/09/04 14:41:46;;;;;;;2.40;1.90;;;37.70;90.00;;;;;;1921890;74;21132;-78
2023/09/04 14:44:39;;;;;;;3.65;1.92;;;37.90;89.50;;;;;;1922169;74;21109;-78
2023/09/04 14:47:35;;;;;;;4.28;1.80;;;38.10;88.50;;;;;;1922349;74;21221;-78
2023/09/04 14:50:29;;;;;;;3.55;2.27;;;38.30;86.30;;;;;;1922065;74;21583;-78
2023/09/04 14:53:26;;;;;;;3.12;2.17;;;39.10;85.00;;;;;;1921870;74;21111;-78
2023/09/04 14:56:21;;;;;;;3.50;1.65;;;39.80;82.20;;;;;;1921926;74;21518;-78
2023/09/04 14:59:15;;;;;;;3.33;2.10;;;39.80;80.10;;;;;;1921772;74;21099;-78
2023/09/04 15:02:10;;;;;;;3.00;2.02;;;40.20;78.40;;;;;;1921794;74;21193;-78